Time;durP1;ratioP1;P1;durP2;ratioP2;P2;SDS_P1;SDS_P2;PMS_P1;PMS_P2;Temp;Humidity;BMP_temperature;BMP_pressure;BME280_temperature;BME280_humidity;BME280_pressure;Samples;Min_cycle;Max_cycle;Signal;HPM_P1;HPM_P2
2023/01/17 00:00:43;;;;;;;14.00;5.82;;;;;;;-2.63;85.03;99189.56;7360262;19;20420;-76
2023/01/17 00:03:08;;;;;;;10.88;6.70;;;;;;;-2.49;84.55;99185.72;7352605;19;20006;-78
2023/01/17 00:10:58;;;;;;;16.88;8.75;;;;;;;-2.76;84.94;99176.84;7352094;19;20786;-74
2023/01/17 00:13:23;;;;;;;14.52;9.57;;;;;;;-2.84;85.04;99189.25;7355112;19;20436;-73
2023/01/17 00:15:47;;;;;;;15.43;8.35;;;;;;;-2.81;85.05;99178.69;7353622;19;20111;-75
2023/01/17 00:18:12;;;;;;;14.35;7.78;;;;;;;-2.70;85.09;99172.31;7347883;19;20474;-76
2023/01/17 00:26:18;;;;;;;10.52;5.32;;;;;;;-2.41;84.69;99170.72;7352820;19;20010;-74
2023/01/17 01:35:15;;;;;;;12.90;6.13;;;;;;;-2.25;85.23;99151.13;7348664;19;20105;-77
2023/01/17 01:37:40;;;;;;;13.52;8.07;;;;;;;-2.37;85.25;99159.31;7347238;19;20018;-75
2023/01/17 01:40:05;;;;;;;9.52;4.40;;;;;;;-2.24;85.17;99165.88;7347286;19;20010;-72
2023/01/17 01:42:30;;;;;;;14.63;8.93;;;;;;;-2.35;85.10;99178.38;7346490;19;20025;-75
2023/01/17 01:44:54;;;;;;;16.65;8.85;;;;;;;-2.31;84.88;99159.13;7347266;19;20010;-74
2023/01/17 01:47:25;;;;;;;9.95;5.65;;;;;;;-2.11;84.82;99148.13;7350452;19;20121;-76
2023/01/17 01:49:50;;;;;;;16.80;8.80;;;;;;;-2.22;84.49;99161.47;7356834;19;20017;-70
2023/01/17 01:52:16;;;;;;;16.83;9.68;;;;;;;-2.29;84.52;99150.38;7351561;19;20371;-73
2023/01/17 01:54:47;;;;;;;16.10;8.68;;;;;;;-2.41;84.69;99160.28;7352248;19;20015;-78
2023/01/17 01:57:17;;;;;;;18.23;10.32;;;;;;;-2.42;84.95;99158.56;7356461;19;20014;-77
2023/01/17 01:59:48;;;;;;;18.27;8.98;;;;;;;-2.27;84.87;99172.06;7354669;19;20018;-74
2023/01/17 02:02:12;;;;;;;12.13;5.82;;;;;;;-2.10;84.76;99163.75;7352970;19;20014;-77
2023/01/17 02:04:38;;;;;;;17.30;9.18;;;;;;;-2.13;84.50;99158.59;7353861;19;20066;-76
2023/01/17 02:07:14;;;;;;;13.55;7.70;;;;;;;-2.16;84.77;99156.09;7349309;19;20017;-74
2023/01/17 02:09:38;;;;;;;17.77;8.38;;;;;;;-2.05;84.34;99169.72;7351660;19;20058;-73
2023/01/17 02:12:04;;;;;;;14.20;7.00;;;;;;;-1.79;83.49;99157.63;7348172;19;20007;-72
2023/01/17 02:14:28;;;;;;;14.80;8.27;;;;;;;-2.14;83.55;99159.50;7346373;19;20037;-74
2023/01/17 02:17:26;;;;;;;12.82;5.85;;;;;;;-2.11;83.80;99159.44;7349312;19;20006;-76
2023/01/17 02:20:19;;;;;;;12.23;5.78;;;;;;;-2.16;83.84;99158.72;7345468;19;20014;-78
2023/01/17 02:23:02;;;;;;;15.40;9.38;;;;;;;-2.26;84.07;99146.81;7346263;19;20026;-75
2023/01/17 02:25:45;;;;;;;11.20;6.07;;;;;;;-2.11;84.10;99140.28;7345486;19;20480;-78
2023/01/17 02:28:40;;;;;;;9.55;5.90;;;;;;;-1.97;83.80;99144.22;7348177;19;20007;-79
2023/01/17 02:31:33;;;;;;;15.43;9.18;;;;;;;-1.98;83.39;99147.72;7347337;19;20044;-75
2023/01/17 02:34:05;;;;;;;17.38;8.35;;;;;;;-2.21;83.58;99131.88;7342561;19;20018;-75
2023/01/17 02:36:44;;;;;;;16.00;8.93;;;;;;;-2.21;83.74;99131.88;7344718;19;20069;-73
2023/01/17 02:39:16;;;;;;;20.02;10.07;;;;;;;-2.18;83.93;99138.75;7343923;19;20014;-72
2023/01/17 02:41:45;;;;;;;16.80;9.55;;;;;;;-2.29;84.07;99131.22;7345608;19;20071;-68
2023/01/17 02:44:17;;;;;;;13.88;7.95;;;;;;;-2.13;84.27;99124.66;7344298;19;20018;-68
2023/01/17 02:46:50;;;;;;;15.52;8.65;;;;;;;-2.16;84.39;99130.00;7343817;19;20644;-80
2023/01/17 02:49:19;;;;;;;16.77;7.60;;;;;;;-2.10;84.35;99134.16;7345814;19;20330;-77
2023/01/17 02:51:56;;;;;;;11.45;6.35;;;;;;;-2.12;84.40;99128.13;7345265;19;20022;-75
2023/01/17 02:54:39;;;;;;;17.08;9.88;;;;;;;-2.12;84.59;99128.97;7343838;19;20014;-77
2023/01/17 02:57:31;;;;;;;10.52;5.43;;;;;;;-1.97;84.68;99131.16;7345433;19;20014;-74
2023/01/17 03:00:28;;;;;;;8.45;5.10;;;;;;;-1.79;84.14;99114.06;7346990;19;20309;-76
2023/01/17 03:03:12;;;;;;;16.60;9.05;;;;;;;-2.04;84.13;99126.19;7343150;19;20039;-77
2023/01/17 03:05:45;;;;;;;18.40;9.90;;;;;;;-1.98;84.14;99118.16;7342552;19;20010;-76
2023/01/17 03:08:11;;;;;;;17.65;9.57;;;;;;;-1.99;84.07;99109.44;7350061;19;20061;-77
2023/01/17 03:10:36;;;;;;;12.45;7.55;;;;;;;-1.97;83.98;99118.09;7350495;19;20496;-77
2023/01/17 03:13:02;;;;;;;16.88;8.77;;;;;;;-1.79;83.68;99110.59;7350529;19;20481;-78
2023/01/17 03:15:28;;;;;;;21.17;10.32;;;;;;;-1.87;83.37;99100.41;7351595;19;20015;-78
2023/01/17 03:17:57;;;;;;;15.73;8.85;;;;;;;-1.99;83.51;99106.84;7347609;19;20033;-76
2023/01/17 03:20:22;;;;;;;13.15;9.00;;;;;;;-2.10;83.83;99121.97;7348625;19;20007;-75
2023/01/17 03:22:46;;;;;;;17.95;9.27;;;;;;;-1.98;83.65;99118.16;7347162;19;20018;-70
2023/01/17 03:25:11;;;;;;;8.48;5.65;;;;;;;-1.89;83.63;99110.03;7346967;19;19999;-72
2023/01/17 03:27:35;;;;;;;15.60;8.05;;;;;;;-1.99;83.58;99109.44;7344835;19;20544;-71
2023/01/17 03:30:00;;;;;;;14.77;8.02;;;;;;;-2.09;83.71;99104.53;7347649;19;20014;-75
2023/01/17 03:32:25;;;;;;;21.98;11.48;;;;;;;-2.00;83.68;99110.34;7342159;19;20025;-70
2023/01/17 03:34:49;;;;;;;11.73;7.05;;;;;;;-1.84;83.24;99106.41;7343749;19;20011;-68
2023/01/17 03:37:14;;;;;;;15.70;8.65;;;;;;;-2.00;83.12;99112.09;7341498;19;20034;-68
2023/01/17 03:39:39;;;;;;;14.77;7.65;;;;;;;-2.01;83.13;99110.41;7343396;19;20010;-70
2023/01/17 03:42:03;;;;;;;10.77;6.55;;;;;;;-1.95;83.20;99099.78;7343001;19;20014;-69
2023/01/17 03:44:28;;;;;;;12.07;5.05;;;;;;;-1.83;82.72;99104.63;7345619;19;20165;-69
2023/01/17 03:46:52;;;;;;;15.82;9.02;;;;;;;-2.11;82.87;99104.59;7351895;19;20078;-70
2023/01/17 03:49:17;;;;;;;9.75;5.18;;;;;;;-2.01;83.07;99105.16;7352459;19;20025;-70
2023/01/17 03:51:42;;;;;;;16.33;9.65;;;;;;;-2.12;83.26;99102.88;7350400;19;19998;-71
2023/01/17 03:54:06;;;;;;;10.68;5.22;;;;;;;-2.13;83.28;99103.78;7349000;19;20011;-73
2023/01/17 03:56:31;;;;;;;15.45;8.48;;;;;;;-2.04;83.38;99105.28;7350505;19;20026;-71
2023/01/17 03:58:57;;;;;;;16.58;8.57;;;;;;;-2.12;83.70;99109.84;7347697;19;20007;-70
2023/01/17 04:01:21;;;;;;;17.17;8.75;;;;;;;-2.15;83.63;99100.38;7348322;19;20014;-70
2023/01/17 04:03:46;;;;;;;11.82;6.32;;;;;;;-2.13;83.73;99115.97;7350455;19;20111;-69
2023/01/17 04:06:11;;;;;;;13.88;7.57;;;;;;;-1.94;83.58;99107.56;7349583;19;20021;-70
2023/01/17 04:08:35;;;;;;;11.10;5.88;;;;;;;-1.96;83.57;99114.59;7348406;19;20062;-68
2023/01/17 04:11:00;;;;;;;19.77;10.73;;;;;;;-2.14;83.59;99115.09;7348249;19;20015;-70
2023/01/17 04:13:24;;;;;;;10.00;5.45;;;;;;;-2.03;83.84;99107.81;7347633;19;20019;-71
2023/01/17 04:15:50;;;;;;;12.38;5.72;;;;;;;-1.94;83.66;99119.78;7347930;19;20495;-70
2023/01/17 04:18:19;;;;;;;8.63;5.40;;;;;;;-1.85;83.51;99122.97;7345920;19;20014;-69
2023/01/17 04:20:44;;;;;;;18.85;10.05;;;;;;;-1.99;83.36;99130.34;7346294;19;20354;-70
2023/01/17 04:23:09;;;;;;;8.90;5.35;;;;;;;-1.93;83.29;99129.34;7348653;19;20330;-71
2023/01/17 04:25:33;;;;;;;18.42;8.32;;;;;;;-2.01;83.39;99120.84;7347735;19;20461;-71
2023/01/17 04:27:59;;;;;;;19.83;10.45;;;;;;;-2.15;83.72;99126.47;7353794;19;20014;-73
2023/01/17 04:30:25;;;;;;;16.35;8.90;;;;;;;-2.14;83.93;99130.78;7348265;19;20564;-73
2023/01/17 04:32:50;;;;;;;14.35;8.13;;;;;;;-1.97;83.67;99123.34;7348946;19;20017;-71
2023/01/17 04:35:15;;;;;;;22.63;12.30;;;;;;;-2.09;83.80;99128.91;7349966;19;20018;-73
2023/01/17 04:37:39;;;;;;;14.80;8.48;;;;;;;-2.02;83.87;99129.56;7346487;19;20015;-71
2023/01/17 04:40:05;;;;;;;21.73;10.80;;;;;;;-2.11;84.17;99130.69;7348910;19;20398;-72
2023/01/17 04:42:30;;;;;;;12.70;6.88;;;;;;;-1.86;84.07;99147.38;7348668;19;20090;-70
2023/01/17 04:44:55;;;;;;;16.77;7.97;;;;;;;-1.86;84.04;99131.69;7349382;19;20015;-70
2023/01/17 04:47:19;;;;;;;15.63;8.98;;;;;;;-1.95;84.00;99131.97;7345702;19;20449;-69
2023/01/17 04:49:44;;;;;;;7.30;4.13;;;;;;;-1.89;84.10;99121.34;7346186;19;20032;-69
2023/01/17 04:52:08;;;;;;;8.88;5.65;;;;;;;-1.90;84.07;99134.44;7347207;19;20046;-68
2023/01/17 04:54:33;;;;;;;14.90;7.18;;;;;;;-1.84;83.96;99118.59;7347327;19;20023;-69
2023/01/17 04:56:57;;;;;;;23.83;11.38;;;;;;;-1.88;84.04;99128.28;7345876;19;20402;-69
2023/01/17 04:59:22;;;;;;;12.27;6.65;;;;;;;-1.89;84.02;99126.56;7346379;19;20014;-69
2023/01/17 05:01:48;;;;;;;19.38;10.25;;;;;;;-1.94;84.03;99133.69;7346938;19;20007;-70
2023/01/17 05:04:12;;;;;;;18.63;10.00;;;;;;;-1.93;84.04;99132.81;7344381;19;20010;-69
2023/01/17 05:06:37;;;;;;;19.88;11.15;;;;;;;-1.93;84.33;99124.97;7347732;19;20010;-68
2023/01/17 05:09:02;;;;;;;14.05;8.27;;;;;;;-1.88;84.22;99137.88;7347730;19;20026;-70
2023/01/17 05:11:26;;;;;;;9.32;6.00;;;;;;;-1.62;83.51;99129.25;7346042;19;20030;-68
2023/01/17 05:13:51;;;;;;;21.40;11.30;;;;;;;-1.77;83.64;99122.72;7345903;19;20023;-69
2023/01/17 05:16:18;;;;;;;14.13;7.40;;;;;;;-1.75;83.70;99109.63;7343898;19;20014;-68
2023/01/17 05:18:43;;;;;;;12.90;7.72;;;;;;;-1.75;83.54;99120.94;7345003;19;20022;-69
2023/01/17 05:21:08;;;;;;;20.20;9.48;;;;;;;-1.85;83.42;99117.75;7348402;19;20097;-68
2023/01/17 05:23:32;;;;;;;15.57;8.95;;;;;;;-1.92;83.84;99128.44;7344209;19;20026;-69
2023/01/17 05:25:57;;;;;;;18.60;9.07;;;;;;;-1.81;83.86;99131.59;7346531;19;20017;-67
2023/01/17 05:28:22;;;;;;;14.85;7.88;;;;;;;-1.73;83.64;99128.72;7347812;19;20007;-69
2023/01/17 05:30:46;;;;;;;16.65;8.95;;;;;;;-1.73;83.34;99123.50;7346461;19;20010;-68
2023/01/17 05:33:11;;;;;;;14.65;6.03;;;;;;;-1.72;83.50;99122.59;7347253;19;20078;-68
2023/01/17 05:35:36;;;;;;;10.88;6.05;;;;;;;-1.86;83.70;99134.31;7343743;19;20118;-69
2023/01/17 05:38:01;;;;;;;16.50;10.13;;;;;;;-1.95;83.73;99131.13;7344004;19;20014;-68
2023/01/17 05:40:29;;;;;;;12.80;7.22;;;;;;;-1.91;83.96;99125.75;7347016;19;20326;-69
2023/01/17 05:42:56;;;;;;;17.65;9.95;;;;;;;-1.84;84.00;99124.69;7355654;19;20006;-72
2023/01/17 05:45:25;;;;;;;18.98;8.93;;;;;;;-1.90;83.95;99130.06;7349037;19;20015;-71
2023/01/17 05:47:52;;;;;;;17.05;8.73;;;;;;;-1.67;84.03;99125.91;7344981;19;20010;-71
2023/01/17 05:50:22;;;;;;;9.00;5.65;;;;;;;-1.69;84.02;99127.75;7347106;19;20018;-71
2023/01/17 05:52:58;;;;;;;18.63;10.07;;;;;;;-1.59;83.72;99121.34;7343857;19;20010;-70
2023/01/17 05:55:24;;;;;;;19.55;10.82;;;;;;;-1.78;83.91;99133.22;7349965;19;20009;-71
2023/01/17 05:57:49;;;;;;;17.85;11.15;;;;;;;-1.88;84.16;99133.50;7347669;19;20011;-71
2023/01/17 06:00:15;;;;;;;11.60;5.85;;;;;;;-1.65;84.04;99131.97;7349725;19;20074;-72
2023/01/17 06:02:40;;;;;;;11.20;5.80;;;;;;;-1.72;84.20;99133.91;7344470;19;20011;-70
2023/01/17 06:05:05;;;;;;;19.40;10.82;;;;;;;-1.73;84.03;99139.19;7344745;19;20150;-71
2023/01/17 06:07:30;;;;;;;14.13;7.35;;;;;;;-1.77;84.19;99138.41;7347531;19;20014;-73
2023/01/17 06:09:55;;;;;;;18.80;10.18;;;;;;;-1.76;84.21;99131.44;7344052;19;20037;-73
2023/01/17 06:12:19;;;;;;;17.85;9.15;;;;;;;-1.72;84.44;99128.69;7344943;19;20007;-72
2023/01/17 06:14:44;;;;;;;16.55;8.85;;;;;;;-1.73;84.49;99136.56;7342505;19;20022;-69
2023/01/17 06:17:08;;;;;;;18.77;11.18;;;;;;;-1.60;84.32;99132.69;7343000;19;20026;-69
2023/01/17 06:19:33;;;;;;;17.77;10.02;;;;;;;-1.73;84.44;99155.72;7342225;19;20070;-70
2023/01/17 06:21:58;;;;;;;18.05;8.75;;;;;;;-1.69;84.46;99139.03;7345458;19;20469;-69
2023/01/17 06:24:22;;;;;;;17.98;9.57;;;;;;;-1.65;84.60;99138.03;7344057;19;20009;-69
2023/01/17 06:26:47;;;;;;;19.25;10.70;;;;;;;-1.65;84.44;99151.09;7342980;19;20407;-69
2023/01/17 06:29:12;;;;;;;15.68;8.60;;;;;;;-1.69;84.63;99152.09;7344653;19;20010;-69
2023/01/17 06:31:36;;;;;;;23.85;9.23;;;;;;;-1.55;84.45;99141.22;7347884;19;20010;-72
2023/01/17 06:34:02;;;;;;;15.00;7.70;;;;;;;-1.45;84.43;99142.66;7345975;19;20036;-69
2023/01/17 06:36:27;;;;;;;16.10;9.73;;;;;;;-1.53;84.37;99147.25;7346798;19;20015;-70
2023/01/17 06:38:52;;;;;;;9.75;5.93;;;;;;;-1.45;84.53;99145.25;7345118;19;20025;-70
2023/01/17 06:41:16;;;;;;;17.58;9.20;;;;;;;-1.43;84.09;99146.06;7345167;19;20019;-69
2023/01/17 06:43:41;;;;;;;12.40;6.85;;;;;;;-1.55;84.12;99126.41;7347667;19;20081;-68
2023/01/17 06:46:05;;;;;;;21.98;9.13;;;;;;;-1.55;84.37;99138.59;7342052;19;20014;-68
2023/01/17 06:48:30;;;;;;;15.75;9.27;;;;;;;-1.65;84.63;99129.34;7345592;19;20011;-68
2023/01/17 06:50:56;;;;;;;16.83;9.13;;;;;;;-1.56;84.89;99142.13;7344772;19;20015;-69
2023/01/17 06:53:21;;;;;;;27.27;11.77;;;;;;;-1.42;84.62;99139.94;7346161;19;20017;-70
2023/01/17 06:55:45;;;;;;;18.67;10.88;;;;;;;-1.38;84.37;99140.72;7346524;19;20019;-69
2023/01/17 06:58:10;;;;;;;11.02;4.68;;;;;;;-1.30;84.33;99141.31;7352171;19;20027;-69
2023/01/17 07:00:35;;;;;;;19.65;10.38;;;;;;;-1.30;84.20;99139.56;7356008;19;20018;-68
2023/01/17 07:02:59;;;;;;;11.18;6.50;;;;;;;-1.24;84.34;99134.13;7342989;19;20022;-69
2023/01/17 07:05:24;;;;;;;15.70;8.30;;;;;;;-1.27;84.03;99144.72;7345774;19;20465;-68
2023/01/17 07:07:49;;;;;;;9.50;5.85;;;;;;;-1.20;84.15;99147.97;7342574;19;20006;-68
2023/01/17 07:10:14;;;;;;;19.75;11.25;;;;;;;-1.29;84.18;99143.03;7344915;19;20018;-68
2023/01/17 07:12:40;;;;;;;16.83;9.43;;;;;;;-1.31;84.20;99139.59;7346428;19;20018;-69
2023/01/17 07:15:06;;;;;;;19.13;10.60;;;;;;;-1.32;84.16;99146.59;7343603;19;20031;-68
2023/01/17 07:17:31;;;;;;;16.92;8.63;;;;;;;-1.33;84.57;99147.50;7344514;19;20332;-69
2023/01/17 07:19:55;;;;;;;22.20;10.15;;;;;;;-1.29;84.42;99150.88;7340635;19;20416;-68
2023/01/17 07:22:20;;;;;;;18.23;9.95;;;;;;;-1.35;84.70;99146.69;7349007;19;20018;-68
2023/01/17 07:24:45;;;;;;;23.02;10.48;;;;;;;-1.26;84.53;99149.03;7350305;19;20010;-67
2023/01/17 07:27:10;;;;;;;19.67;10.35;;;;;;;-1.31;84.73;99152.69;7349875;19;20011;-68
2023/01/17 07:29:34;;;;;;;24.50;11.75;;;;;;;-1.24;84.75;99147.19;7350844;19;20097;-68
2023/01/17 07:31:59;;;;;;;18.65;9.13;;;;;;;-1.24;84.86;99149.00;7349419;19;20018;-69
2023/01/17 07:34:23;;;;;;;12.57;6.57;;;;;;;-1.22;84.88;99144.53;7350321;19;20372;-69
2023/01/17 07:36:48;;;;;;;15.23;8.27;;;;;;;-1.03;84.77;99153.53;7348098;19;20103;-76
2023/01/17 07:39:13;;;;;;;18.02;9.38;;;;;;;-1.10;84.82;99150.25;7348512;19;20011;-71
2023/01/17 07:41:40;;;;;;;20.65;10.85;;;;;;;-1.13;84.91;99149.50;7351037;19;20043;-69
2023/01/17 07:44:04;;;;;;;15.77;6.55;;;;;;;-1.03;84.84;99150.06;7348419;19;20014;-68
2023/01/17 07:46:29;;;;;;;17.40;10.10;;;;;;;-0.82;84.78;99144.97;7348621;19;20021;-70
2023/01/17 07:48:53;;;;;;;19.40;10.30;;;;;;;-1.02;84.83;99134.31;7350946;19;20015;-68
2023/01/17 07:51:18;;;;;;;17.42;9.82;;;;;;;-1.03;84.80;99157.91;7349501;19;20025;-69
2023/01/17 07:53:43;;;;;;;18.95;10.80;;;;;;;-0.95;84.82;99148.03;7349212;19;20750;-70
2023/01/17 07:56:07;;;;;;;15.73;8.93;;;;;;;-0.90;84.72;99146.09;7348878;19;20343;-69
2023/01/17 07:58:33;;;;;;;24.05;12.02;;;;;;;-0.97;85.05;99152.47;7346997;19;20077;-68
2023/01/17 08:01:06;;;;;;;13.57;6.90;;;;;;;-0.90;85.12;99156.56;7345928;19;20018;-67
2023/01/17 08:03:33;;;;;;;20.95;11.23;;;;;;;-0.95;85.12;99158.50;7349518;19;20010;-68
2023/01/17 08:05:58;;;;;;;15.05;7.85;;;;;;;-0.74;85.07;99161.25;7345358;19;20665;-68
2023/01/17 08:08:23;;;;;;;21.15;11.25;;;;;;;-0.91;85.07;99157.50;7349285;19;20341;-69
2023/01/17 08:10:50;;;;;;;21.98;11.63;;;;;;;-0.84;85.16;99156.38;7349884;19;20079;-69
2023/01/17 08:13:15;;;;;;;19.40;10.98;;;;;;;-0.86;85.38;99155.56;7347936;19;20023;-69
2023/01/17 08:15:39;;;;;;;18.30;10.82;;;;;;;-0.83;85.32;99155.47;7348871;19;20022;-69
2023/01/17 08:18:04;;;;;;;18.80;10.45;;;;;;;-0.78;85.51;99153.56;7346575;19;20015;-69
2023/01/17 08:20:29;;;;;;;14.68;6.78;;;;;;;-0.68;85.40;99160.22;7347833;19;20022;-69
2023/01/17 08:22:55;;;;;;;30.35;15.07;;;;;;;-0.86;85.79;99160.81;7347934;19;20010;-71
2023/01/17 08:25:20;;;;;;;21.83;12.50;;;;;;;-0.81;86.15;99161.53;7348566;19;20035;-70
2023/01/17 08:27:45;;;;;;;21.10;11.65;;;;;;;-0.63;85.84;99142.56;7348781;19;20034;-70
2023/01/17 08:30:10;;;;;;;24.80;11.93;;;;;;;-0.53;85.40;99150.97;7349989;19;20018;-70
2023/01/17 08:32:34;;;;;;;23.42;12.35;;;;;;;-0.64;85.46;99143.47;7347150;19;20018;-69
2023/01/17 08:34:59;;;;;;;21.60;10.35;;;;;;;-0.63;85.73;99157.41;7349237;19;20094;-69
2023/01/17 08:37:24;;;;;;;12.75;6.78;;;;;;;-0.40;85.06;99152.25;7347320;19;20342;-71
2023/01/17 08:39:49;;;;;;;19.90;11.85;;;;;;;-0.60;85.26;99155.56;7348846;19;20351;-70
2023/01/17 08:42:13;;;;;;;22.45;11.40;;;;;;;-0.58;85.39;99155.53;7347643;19;20087;-69
2023/01/17 08:44:38;;;;;;;28.25;13.23;;;;;;;-0.55;85.71;99158.00;7346213;19;20019;-69
2023/01/17 08:47:03;;;;;;;19.65;10.60;;;;;;;-0.47;85.36;99146.38;7348969;19;20050;-71
2023/01/17 08:49:27;;;;;;;20.42;8.57;;;;;;;-0.41;85.44;99147.91;7347530;19;20015;-71
2023/01/17 08:51:52;;;;;;;17.75;9.63;;;;;;;-0.34;85.12;99140.72;7350013;19;20015;-68
2023/01/17 08:54:18;;;;;;;24.98;14.30;;;;;;;-0.44;85.23;99153.25;7348988;19;20025;-69
2023/01/17 08:56:42;;;;;;;19.52;10.70;;;;;;;-0.29;85.45;99134.41;7348701;19;20024;-69
2023/01/17 08:59:14;;;;;;;22.52;11.85;;;;;;;-0.27;85.13;99136.97;7343615;19;20078;-70
2023/01/17 09:02:16;;;;;;;20.60;11.05;;;;;;;-0.26;85.08;99141.28;7350273;19;20018;-69
2023/01/17 09:05:03;;;;;;;33.50;19.75;;;;;;;-0.56;85.25;99153.69;7347929;19;20082;-72
2023/01/17 09:07:35;;;;;;;21.05;12.07;;;;;;;-0.37;85.46;99125.97;7353318;19;20022;-74
2023/01/17 09:09:59;;;;;;;24.58;12.77;;;;;;;-0.27;85.09;99129.09;7355824;19;20025;-70
2023/01/17 09:12:24;;;;;;;28.35;14.38;;;;;;;-0.52;85.55;99136.97;7356619;19;20651;-71
2023/01/17 09:14:48;;;;;;;19.42;7.90;;;;;;;-0.21;85.61;99140.19;7356507;19;20017;-70
2023/01/17 09:17:14;;;;;;;23.40;13.73;;;;;;;-0.23;85.41;99128.94;7356674;19;20407;-73
2023/01/17 09:19:42;;;;;;;27.75;12.63;;;;;;;-0.25;85.67;99124.66;7357044;19;20021;-71
2023/01/17 09:22:08;;;;;;;18.60;12.07;;;;;;;-0.22;85.76;99141.09;7357911;19;20048;-70
2023/01/17 09:24:33;;;;;;;22.42;12.15;;;;;;;-0.20;85.89;99123.56;7355043;19;20011;-70
2023/01/17 09:26:58;;;;;;;20.25;11.15;;;;;;;-0.08;85.78;99131.00;7346605;19;20025;-70
2023/01/17 09:29:23;;;;;;;22.35;11.85;;;;;;;0.02;85.32;99118.41;7346728;19;20047;-72
2023/01/17 09:31:48;;;;;;;22.75;11.52;;;;;;;0.15;84.79;99124.03;7348313;19;20010;-69
2023/01/17 09:34:13;;;;;;;20.73;11.80;;;;;;;0.12;84.46;99119.75;7347368;19;20014;-69
2023/01/17 09:36:37;;;;;;;15.88;9.43;;;;;;;0.11;84.63;99120.72;7346875;19;20014;-69
2023/01/17 09:39:03;;;;;;;19.33;10.65;;;;;;;0.21;84.31;99118.59;7342657;19;20024;-70
2023/01/17 09:41:35;;;;;;;23.95;11.05;;;;;;;0.17;84.28;99114.34;7345724;19;20025;-70
2023/01/17 09:44:13;;;;;;;19.02;10.18;;;;;;;0.20;84.35;99122.97;7343654;19;20015;-71
2023/01/17 09:46:45;;;;;;;18.60;10.30;;;;;;;0.08;84.52;99131.28;7347837;19;20018;-71
2023/01/17 09:49:28;;;;;;;22.05;11.18;;;;;;;0.20;84.45;99128.22;7345019;19;20018;-69
2023/01/17 09:51:53;;;;;;;15.82;7.43;;;;;;;0.17;84.69;99120.47;7348516;19;20015;-70
2023/01/17 09:54:21;;;;;;;15.13;9.13;;;;;;;0.18;84.72;99130.03;7345487;19;20034;-71
2023/01/17 09:56:59;;;;;;;23.27;12.40;;;;;;;0.11;84.86;99117.22;7346458;19;20014;-70
2023/01/17 09:59:56;;;;;;;18.42;11.50;;;;;;;0.25;85.15;99122.78;7344651;19;20359;-69
2023/01/17 10:02:37;;;;;;;18.33;10.88;;;;;;;0.26;85.00;99125.34;7346678;19;20017;-72
2023/01/17 10:05:09;;;;;;;28.58;14.00;;;;;;;0.25;84.63;99123.63;7343352;19;20011;-70
2023/01/17 10:08:20;;;;;;;19.90;10.45;;;;;;;0.42;84.76;99124.78;7347341;19;20113;-71
2023/01/17 10:11:20;;;;;;;17.90;11.45;;;;;;;0.24;84.77;99124.53;7340518;19;20106;-71
2023/01/17 10:14:23;;;;;;;22.85;12.63;;;;;;;0.47;84.85;99107.94;7342616;19;20503;-69
2023/01/17 10:17:02;;;;;;;26.25;13.18;;;;;;;0.27;84.64;99123.59;7341718;19;20006;-70
2023/01/17 10:20:11;;;;;;;23.45;10.77;;;;;;;0.32;84.94;99127.75;7343251;19;20026;-70
2023/01/17 10:23:11;;;;;;;21.08;11.18;;;;;;;0.40;84.77;99129.22;7341900;19;20128;-72
2023/01/17 10:25:42;;;;;;;29.33;14.75;;;;;;;0.28;84.84;99118.28;7340457;19;20458;-71
2023/01/17 10:28:14;;;;;;;19.38;11.20;;;;;;;0.28;85.06;99118.28;7342046;19;20006;-72
2023/01/17 10:30:47;;;;;;;21.38;11.82;;;;;;;0.38;84.79;99123.16;7340569;19;20026;-71
2023/01/17 10:33:17;;;;;;;20.73;10.30;;;;;;;0.41;84.95;99117.81;7341681;19;20019;-71
2023/01/17 10:35:51;;;;;;;24.73;11.30;;;;;;;0.41;84.96;99115.19;7339476;19;20014;-70
2023/01/17 10:38:17;;;;;;;23.73;11.88;;;;;;;0.49;84.87;99118.34;7341564;19;20010;-70
2023/01/17 10:40:53;;;;;;;14.63;6.82;;;;;;;0.51;84.99;99113.91;7342309;19;20018;-71
2023/01/17 10:43:43;;;;;;;24.30;12.48;;;;;;;0.61;84.87;99123.13;7342459;19;20015;-72
2023/01/17 10:46:15;;;;;;;28.88;13.70;;;;;;;0.63;84.68;99126.56;7340570;19;20053;-72
2023/01/17 10:48:43;;;;;;;24.70;13.68;;;;;;;0.60;84.49;99116.16;7342672;19;20070;-73
2023/01/17 10:51:42;;;;;;;20.13;11.75;;;;;;;0.66;84.66;99111.56;7341247;19;20022;-72
2023/01/17 10:54:25;;;;;;;21.60;12.43;;;;;;;0.62;84.66;99116.97;7339559;19;20131;-71
2023/01/17 10:56:50;;;;;;;25.33;13.07;;;;;;;0.58;84.92;99120.63;7339133;19;20026;-69
2023/01/17 10:59:28;;;;;;;29.30;12.70;;;;;;;0.62;84.91;99115.19;7338144;19;20014;-69
2023/01/17 11:01:53;;;;;;;21.92;11.48;;;;;;;0.66;84.84;99121.19;7340886;19;20085;-69
2023/01/17 11:04:20;;;;;;;25.52;13.00;;;;;;;0.62;84.89;99130.94;7339003;19;20090;-69
2023/01/17 11:06:46;;;;;;;26.83;12.65;;;;;;;0.56;85.10;99122.47;7340178;19;20015;-69
2023/01/17 11:09:10;;;;;;;30.63;13.77;;;;;;;0.79;84.56;99127.63;7341942;19;20366;-70
2023/01/17 11:11:45;;;;;;;20.77;10.05;;;;;;;0.86;84.84;99129.13;7339025;19;20319;-69
2023/01/17 11:14:18;;;;;;;14.30;6.85;;;;;;;0.73;84.74;99131.38;7340306;19;20011;-69
2023/01/17 11:16:43;;;;;;;24.52;11.63;;;;;;;0.78;84.83;99114.59;7339563;19;20062;-70
2023/01/17 11:19:22;;;;;;;28.17;14.48;;;;;;;0.68;84.75;99114.09;7339278;19;20077;-69
2023/01/17 11:21:57;;;;;;;21.80;9.45;;;;;;;0.98;84.55;99115.50;7338796;19;20474;-70
2023/01/17 11:24:30;;;;;;;;;;;;;;;0.94;84.37;99115.66;7340788;19;20038;-69
2023/01/17 11:26:56;;;;;;;15.60;8.65;;;;;;;0.89;84.26;99109.78;7338667;19;20254;-68
2023/01/17 11:29:35;;;;;;;14.88;7.70;;;;;;;0.96;84.44;99104.19;7339687;19;20031;-68
2023/01/17 11:32:30;;;;;;;27.95;14.70;;;;;;;0.77;84.71;99105.03;7339203;19;20074;-68
2023/01/17 11:35:16;;;;;;;25.35;12.85;;;;;;;0.85;84.87;99106.41;7341937;19;20025;-69
2023/01/17 11:37:52;;;;;;;;;;;;;;;0.90;84.75;99104.47;7342210;19;20011;-69
2023/01/17 11:40:42;;;;;;;24.67;13.02;;;;;;;0.95;84.51;99110.38;7343450;19;19936;-71
2023/01/17 11:43:10;;;;;;;26.92;13.57;;;;;;;0.88;84.66;99116.78;7342668;19;20011;-71
2023/01/17 11:45:35;;;;;;;24.63;13.02;;;;;;;0.91;84.63;99111.41;7341051;19;20018;-71
2023/01/17 11:48:07;;;;;;;25.50;13.57;;;;;;;1.01;84.46;99111.91;7342778;19;20098;-72
2023/01/17 11:50:34;;;;;;;28.85;15.00;;;;;;;0.94;84.60;99110.41;7342721;19;20025;-73
2023/01/17 11:53:21;;;;;;;23.73;10.77;;;;;;;1.03;84.64;99115.28;7342298;19;20014;-71
2023/01/17 11:56:05;;;;;;;27.67;13.75;;;;;;;1.16;84.38;99107.75;7339958;19;20011;-73
2023/01/17 11:58:35;;;;;;;17.17;9.75;;;;;;;1.09;84.25;99123.78;7342578;19;20070;-72
2023/01/17 12:01:03;;;;;;;25.88;13.77;;;;;;;1.00;84.38;99116.28;7339366;19;20053;-70
2023/01/17 12:03:40;;;;;;;23.02;10.93;;;;;;;1.22;84.03;99125.91;7343139;19;20015;-72
2023/01/17 12:06:33;;;;;;;28.95;12.32;;;;;;;1.20;83.76;99112.81;7341126;19;20034;-72
2023/01/17 12:09:03;;;;;;;22.90;7.57;;;;;;;1.17;83.82;99114.72;7350684;19;20007;-72
2023/01/17 12:14:46;;;;;;;25.35;12.43;;;;;;;1.11;83.42;99117.63;7349084;19;20452;-72
2023/01/17 12:17:16;;;;;;;29.65;14.75;;;;;;;1.09;83.64;99112.41;7349184;19;20512;-66
2023/01/17 12:20:05;;;;;;;33.05;19.05;;;;;;;0.92;83.93;99120.97;7346427;19;20010;-69
2023/01/17 12:22:55;;;;;;;16.38;8.20;;;;;;;1.13;83.71;99108.72;7348098;19;20384;-69
2023/01/17 12:25:33;;;;;;;20.67;10.55;;;;;;;1.16;83.57;99113.00;7346397;19;20782;-69
2023/01/17 12:28:10;;;;;;;31.33;15.27;;;;;;;1.10;83.76;99116.75;7349124;19;20028;-67
2023/01/17 12:30:53;;;;;;;23.10;11.77;;;;;;;1.17;84.18;99109.47;7350005;19;20041;-68
2023/01/17 12:33:45;;;;;;;16.35;10.15;;;;;;;1.24;83.98;99108.31;7350187;19;20026;-69
2023/01/17 12:36:16;;;;;;;25.15;13.05;;;;;;;1.27;83.53;99111.63;7347608;19;20730;-69
2023/01/17 12:38:41;;;;;;;20.52;10.02;;;;;;;1.24;83.57;99114.38;7348797;19;20036;-69
2023/01/17 12:41:25;;;;;;;26.73;12.55;;;;;;;1.27;84.04;99124.75;7350861;19;20085;-70
2023/01/17 12:43:55;;;;;;;23.38;12.95;;;;;;;1.14;83.60;99115.69;7360972;19;20006;-71
2023/01/17 12:46:37;;;;;;;21.65;9.52;;;;;;;1.21;83.86;99111.06;7367649;19;20281;-69
2023/01/17 12:49:13;;;;;;;17.55;9.15;;;;;;;1.30;83.89;99114.16;7364987;19;20010;-69
2023/01/17 12:51:42;;;;;;;11.10;5.97;;;;;;;1.34;83.85;99115.72;7357766;19;20395;-70
2023/01/17 12:54:42;;;;;;;16.83;8.93;;;;;;;1.50;83.32;99113.28;7347839;19;20364;-70
2023/01/17 12:57:17;;;;;;;28.23;12.32;;;;;;;1.26;83.26;99111.69;7343192;19;20371;-70